Terminal Aerodrome Forecast
Issued by NWS

Home | Current Version | Previous Version | Text Only | Print | Product List | Glossary On
Versions: 1 2 3 4 5 6 7 8 9 10 11 12 13
012
FTUS43 KGRR 281140
TAFJXN
TAF
KJXN 281140Z 2812/2912 04007KT P6SM SCT080
     FM281600 04011KT P6SM SCT060
     FM290000 04006KT P6SM SKC=

USA.gov is the U.S. government's official web portal to all federal, state and local government web resources and services.